Blenheim, New Zealand
Current Conditions -  °F | °C
As of 7:00 AM on Saturday 25 Oct 2014 (Local Time) from NZWN Reporting Station
Few Clouds Few Clouds  
Wind Chill: 50°   Ceiling: Unl
Heat Index: 50°   Visibility: 6mi
Dew Point: 39°   Wind: 10mph
Humidity: 66%   Direction: 180°S
Pressure: 30.24"   Gusts: NA
Location:  41.52°S, 173.95°E
Report Text: NZWN 241900Z AUTO 18009KT 9999 FEW030/// 10/04 Q1024 NOSIG
Loading
Personal Weather Stations






























Interactive Weather Map
Tropical Storm Tracking
New forecast layout! Learn more

10-Day Weather Forecast

Advertisements
Track Severe Weather on mobile